createdAt,value
2022-08-10T00:00:57.929Z,12.08
2022-08-10T00:06:01.238Z,12.00
2022-08-10T00:11:04.959Z,11.96
2022-08-10T00:16:19.130Z,11.90
2022-08-10T00:21:22.435Z,11.84
2022-08-10T00:27:51.800Z,11.82
2022-08-10T00:31:58.374Z,11.80
2022-08-10T00:37:02.678Z,11.79
2022-08-10T00:42:10.596Z,11.75
2022-08-10T00:47:36.070Z,11.72
2022-08-10T00:52:39.438Z,11.70
2022-08-10T00:57:43.266Z,11.69
2022-08-10T01:02:46.694Z,11.66
2022-08-10T01:08:31.968Z,11.64
2022-08-10T01:14:09.629Z,11.58
2022-08-10T01:19:54.571Z,11.54
2022-08-10T01:25:12.072Z,11.53
2022-08-10T01:30:15.880Z,11.54
2022-08-10T01:35:33.598Z,11.50
2022-08-10T01:40:42.388Z,11.45
2022-08-10T01:45:49.734Z,11.39
2022-08-10T01:51:01.641Z,11.30
2022-08-10T01:56:07.854Z,11.26
2022-08-10T02:01:16.943Z,11.21
2022-08-10T02:06:23.064Z,11.15
2022-08-10T02:11:29.322Z,11.07
2022-08-10T02:16:54.019Z,10.98
2022-08-10T02:22:37.599Z,10.93
2022-08-10T02:27:25.456Z,10.88
2022-08-10T02:32:35.984Z,10.84
2022-08-10T02:37:46.801Z,10.80
2022-08-10T02:45:19.058Z,10.78
2022-08-10T02:48:35.510Z,10.77
2022-08-10T02:53:55.473Z,10.78
2022-08-10T02:59:38.468Z,10.76
2022-08-10T03:04:55.034Z,10.72
2022-08-10T03:10:04.536Z,10.71
2022-08-10T03:15:19.638Z,10.74
2022-08-10T03:20:37.413Z,10.82
2022-08-10T03:25:53.165Z,10.94
2022-08-10T03:30:59.697Z,11.06
2022-08-10T03:36:42.227Z,11.16
2022-08-10T03:41:54.311Z,11.29
2022-08-10T03:47:16.288Z,11.46
2022-08-10T03:52:20.589Z,11.65
2022-08-10T03:57:24.813Z,11.87
2022-08-10T04:02:46.824Z,12.16
2022-08-10T04:07:51.609Z,12.77
2022-08-10T04:12:55.536Z,13.47
2022-08-10T04:18:05.758Z,14.73
2022-08-10T04:23:24.428Z,16.15
2022-08-10T04:28:28.402Z,17.44
2022-08-10T04:33:33.774Z,18.29
2022-08-10T04:38:37.482Z,19.46
2022-08-10T04:43:40.896Z,20.78
2022-08-10T04:48:59.712Z,22.08
2022-08-10T04:54:07.209Z,23.14
2022-08-10T04:59:12.743Z,24.34
2022-08-10T05:04:34.701Z,25.42
2022-08-10T05:10:01.597Z,26.39
2022-08-10T05:15:15.249Z,27.02
2022-08-10T05:20:18.824Z,27.52
2022-08-10T05:25:22.644Z,28.23
2022-08-10T05:30:26.806Z,28.87
2022-08-10T05:35:55.061Z,29.52
2022-08-10T05:40:54.797Z,30.27
2022-08-10T05:46:18.652Z,30.73
2022-08-10T05:51:22.493Z,31.14
2022-08-10T05:56:26.684Z,31.72
2022-08-10T06:02:32.001Z,32.38
2022-08-10T06:07:21.659Z,33.14
2022-08-10T06:12:31.292Z,33.75
2022-08-10T06:17:36.102Z,1.82
2022-08-10T06:22:39.417Z,34.45
2022-08-10T06:27:44.466Z,34.73
2022-08-10T06:32:53.135Z,35.29
2022-08-10T06:38:01.434Z,-62.52
2022-08-10T06:43:10.068Z,-128.00
2022-08-10T06:48:32.929Z,3.41
2022-08-10T06:53:53.744Z,36.66
2022-08-10T06:59:21.483Z,36.93
2022-08-10T07:04:38.552Z,36.62
2022-08-10T07:09:42.428Z,36.85
2022-08-10T07:14:47.137Z,35.98
2022-08-10T07:19:53.869Z,35.04
2022-08-10T07:24:59.667Z,34.40
2022-08-10T07:30:05.843Z,35.71
2022-08-10T07:35:13.927Z,37.61
2022-08-10T07:40:20.158Z,38.90
2022-08-10T07:45:29.201Z,40.12
2022-08-10T07:50:35.936Z,41.01
2022-08-10T07:56:05.317Z,41.82
2022-08-10T08:01:07.417Z,42.36
2022-08-10T08:06:12.768Z,42.88
2022-08-10T08:11:26.210Z,43.19
2022-08-10T08:16:31.585Z,43.60
2022-08-10T08:24:07.657Z,43.84
2022-08-10T08:27:11.529Z,43.43
2022-08-10T08:32:22.486Z,42.60
2022-08-10T08:38:30.417Z,42.26
2022-08-10T08:43:31.337Z,41.84
2022-08-10T08:48:53.508Z,42.26
2022-08-10T08:54:19.755Z,42.16
2022-08-10T08:59:35.149Z,42.06
2022-08-10T09:04:59.658Z,42.26
2022-08-10T09:10:38.501Z,42.60
2022-08-10T09:16:00.042Z,41.82
2022-08-10T09:21:17.276Z,41.12
2022-08-10T09:26:43.115Z,41.11
2022-08-10T09:33:06.030Z,41.62
2022-08-10T09:38:01.034Z,41.38
2022-08-10T09:43:25.766Z,41.14
2022-08-10T09:48:46.253Z,39.82
2022-08-10T09:54:04.821Z,37.03
2022-08-10T10:00:00.585Z,33.76
2022-08-10T10:05:11.434Z,31.24
2022-08-10T10:10:24.920Z,29.57
2022-08-10T10:15:44.677Z,28.38
2022-08-10T10:21:09.695Z,27.65
2022-08-10T10:26:24.988Z,27.25
2022-08-10T10:31:56.256Z,26.67
2022-08-10T10:37:01.716Z,26.42
2022-08-10T10:42:59.295Z,26.40
2022-08-10T10:48:29.249Z,26.36
2022-08-10T10:53:48.106Z,26.36
2022-08-10T10:59:54.043Z,26.48
2022-08-10T11:05:14.537Z,26.83
2022-08-10T11:10:32.736Z,27.16
2022-08-10T11:15:55.709Z,27.39
2022-08-10T11:21:16.654Z,27.36
2022-08-10T11:26:29.454Z,27.50
2022-08-10T11:31:48.059Z,27.86
2022-08-10T11:37:15.842Z,28.07
2022-08-10T11:42:45.063Z,27.68
2022-08-10T11:47:59.748Z,27.36
2022-08-10T11:53:39.162Z,26.89
2022-08-10T11:59:16.675Z,26.65
2022-08-10T12:04:21.916Z,26.78
2022-08-10T12:10:08.932Z,26.87
2022-08-10T12:14:59.815Z,26.99
2022-08-10T12:20:16.727Z,27.57
2022-08-10T12:25:57.524Z,28.18
2022-08-10T12:31:06.273Z,28.37
2022-08-10T12:36:18.173Z,28.11
2022-08-10T12:41:44.226Z,27.67
2022-08-10T12:46:59.219Z,27.14
2022-08-10T12:52:24.950Z,26.71
2022-08-10T12:57:29.510Z,26.63
2022-08-10T13:02:36.935Z,26.81
2022-08-10T13:08:25.880Z,27.15
2022-08-10T13:13:09.131Z,27.47
2022-08-10T13:18:17.883Z,27.70
2022-08-10T13:23:28.693Z,27.63
2022-08-10T13:28:47.826Z,27.08
2022-08-10T13:34:40.881Z,26.74
2022-08-10T13:39:23.020Z,26.58
2022-08-10T13:44:54.077Z,26.01
2022-08-10T13:50:10.635Z,25.75
2022-08-10T13:55:17.797Z,25.95
2022-08-10T14:00:34.929Z,26.16
2022-08-10T14:05:44.821Z,26.37
2022-08-10T14:11:08.485Z,26.26
2022-08-10T14:16:16.103Z,26.14
2022-08-10T14:21:20.129Z,25.95
2022-08-10T14:26:31.828Z,25.99
2022-08-10T14:31:39.446Z,26.24
2022-08-10T14:37:07.128Z,26.41
2022-08-10T14:42:27.146Z,26.43
2022-08-10T14:47:53.622Z,26.19
2022-08-10T14:53:15.263Z,25.94
2022-08-10T14:58:34.716Z,25.81
2022-08-10T15:04:01.125Z,25.79
2022-08-10T15:09:19.209Z,25.88
2022-08-10T15:14:43.746Z,25.79
2022-08-10T15:20:02.819Z,25.46
2022-08-10T15:25:25.281Z,25.09
2022-08-10T15:30:38.923Z,24.80
2022-08-10T15:36:07.934Z,24.63
2022-08-10T15:41:16.108Z,24.55
2022-08-10T15:46:29.639Z,24.61
2022-08-10T15:51:54.246Z,24.66
2022-08-10T15:57:08.905Z,24.61
2022-08-10T16:02:17.770Z,24.46
2022-08-10T16:07:42.877Z,24.25
2022-08-10T16:12:59.829Z,24.00
2022-08-10T16:18:08.937Z,23.84
2022-08-10T16:23:18.085Z,23.67
2022-08-10T16:28:23.731Z,23.52
2022-08-10T16:33:54.287Z,23.34
2022-08-10T16:38:55.786Z,23.12
2022-08-10T16:44:01.341Z,22.92
2022-08-10T16:49:05.869Z,22.73
2022-08-10T16:54:10.779Z,22.52
2022-08-10T16:59:17.876Z,22.34
2022-08-10T17:04:26.144Z,22.19
2022-08-10T17:09:32.339Z,22.05
2022-08-10T17:14:39.067Z,21.90
2022-08-10T17:19:45.231Z,21.77
2022-08-10T17:24:58.024Z,21.70
2022-08-10T17:30:09.768Z,21.63
2022-08-10T17:35:23.524Z,21.53
2022-08-10T17:40:29.052Z,21.43
2022-08-10T17:45:47.576Z,21.31
2022-08-10T17:50:54.453Z,21.17
2022-08-10T17:56:00.490Z,21.04
2022-08-10T18:01:38.326Z,20.90
2022-08-10T18:06:32.346Z,20.74
2022-08-10T18:11:42.984Z,20.57
2022-08-10T18:16:47.928Z,20.40
2022-08-10T18:21:51.856Z,20.24
2022-08-10T18:26:58.350Z,20.07
2022-08-10T18:32:03.909Z,19.91
2022-08-10T18:37:10.308Z,19.75
2022-08-10T18:42:16.772Z,19.60
2022-08-10T18:47:41.998Z,19.46
2022-08-10T18:53:12.812Z,19.30
2022-08-10T18:58:40.652Z,19.16
2022-08-10T19:04:09.450Z,19.03
2022-08-10T19:09:47.226Z,18.90
2022-08-10T19:15:01.128Z,18.76
2022-08-10T19:20:29.713Z,18.63
2022-08-10T19:26:36.473Z,18.50
2022-08-10T19:31:24.484Z,18.36
2022-08-10T19:37:17.638Z,18.21
2022-08-10T19:42:32.337Z,18.07
2022-08-10T19:47:52.266Z,17.93
2022-08-10T19:53:05.196Z,17.79
2022-08-10T19:58:21.301Z,17.65
2022-08-10T20:04:10.078Z,17.47
2022-08-10T20:09:42.663Z,17.29
2022-08-10T20:15:27.645Z,17.14
2022-08-10T20:20:38.621Z,17.00
2022-08-10T20:26:01.646Z,16.87
2022-08-10T20:31:23.215Z,16.73
2022-08-10T20:36:31.475Z,16.59
2022-08-10T20:41:45.969Z,16.45
2022-08-10T20:47:02.174Z,16.31
2022-08-10T20:52:07.126Z,16.17
2022-08-10T20:57:56.729Z,16.03
2022-08-10T21:03:31.393Z,15.89
2022-08-10T21:08:44.717Z,15.78
2022-08-10T21:14:15.570Z,15.73
2022-08-10T21:19:32.935Z,15.71
2022-08-10T21:25:02.524Z,15.73
2022-08-10T21:30:16.179Z,15.74
2022-08-10T21:35:56.658Z,15.67
2022-08-10T21:41:57.464Z,15.56
2022-08-10T21:48:06.534Z,15.38
2022-08-10T21:53:44.741Z,15.20
2022-08-10T21:59:22.521Z,15.06
2022-08-10T22:04:45.598Z,14.96
2022-08-10T22:10:09.482Z,14.86
2022-08-10T22:16:03.603Z,14.77
2022-08-10T22:21:45.511Z,14.66
2022-08-10T22:27:46.672Z,14.53
2022-08-10T22:33:27.456Z,14.41
2022-08-10T22:39:14.935Z,14.31
2022-08-10T22:45:06.954Z,14.27
2022-08-10T22:50:13.344Z,14.23
2022-08-10T22:55:41.016Z,14.17
2022-08-10T23:01:01.384Z,14.08
2022-08-10T23:06:10.882Z,14.00
2022-08-10T23:11:29.247Z,13.94
2022-08-10T23:16:59.593Z,13.87
2022-08-10T23:22:14.062Z,13.80
2022-08-10T23:27:38.628Z,13.70
2022-08-10T23:32:49.062Z,13.60
2022-08-10T23:37:57.117Z,13.52
2022-08-10T23:43:02.943Z,13.45
2022-08-10T23:48:07.412Z,13.40
2022-08-10T23:53:13.688Z,13.35
2022-08-10T23:58:33.170Z,13.28
